createdAt,value
2023-01-13T00:00:48.421Z,99458.63
2023-01-13T00:03:15.247Z,99468.75
2023-01-13T00:05:42.073Z,99463.88
2023-01-13T00:08:08.788Z,99464.13
2023-01-13T00:10:35.671Z,99470.41
2023-01-13T00:13:04.422Z,99470.53
2023-01-13T00:15:31.690Z,99467.53
2023-01-13T00:17:58.359Z,99466.31
2023-01-13T00:20:25.090Z,99469.22
2023-01-13T00:22:55.308Z,99470.16
2023-01-13T00:25:22.121Z,99480.13
2023-01-13T00:27:48.745Z,99471.44
2023-01-13T00:30:15.674Z,99467.13
2023-01-13T00:32:42.363Z,99493.19
2023-01-13T00:35:09.283Z,99482.00
2023-01-13T00:37:38.103Z,99482.84
2023-01-13T00:40:05.680Z,99480.66
2023-01-13T00:42:55.078Z,99491.81
2023-01-13T00:45:21.664Z,99482.38
2023-01-13T00:47:48.320Z,99481.56
2023-01-13T00:50:15.368Z,99482.59
2023-01-13T00:52:42.479Z,99479.72
2023-01-13T00:55:09.286Z,99488.56
2023-01-13T00:57:36.322Z,99495.91
2023-01-13T01:00:04.508Z,99462.50
2023-01-13T01:02:31.447Z,99475.25
2023-01-13T01:05:00.023Z,99469.78
2023-01-13T01:07:26.660Z,99478.22
2023-01-13T01:09:53.339Z,99479.06
2023-01-13T01:12:19.912Z,99472.63
2023-01-13T01:14:46.996Z,99478.78
2023-01-13T01:17:13.927Z,99472.75
2023-01-13T01:19:40.566Z,99481.84
2023-01-13T01:22:09.560Z,99495.56
2023-01-13T01:24:36.293Z,99491.59
2023-01-13T01:27:02.991Z,99486.31
2023-01-13T01:29:29.738Z,99486.16
2023-01-13T01:32:00.248Z,99484.50
2023-01-13T01:34:27.003Z,99492.31
2023-01-13T01:36:53.829Z,99494.78
2023-01-13T01:39:20.477Z,99495.19
2023-01-13T01:42:07.016Z,99503.59
2023-01-13T01:44:42.786Z,99497.22
2023-01-13T01:47:12.147Z,99504.78
2023-01-13T01:49:39.918Z,99496.41
2023-01-13T01:52:37.134Z,99503.03
2023-01-13T01:55:09.880Z,99496.03
2023-01-13T01:58:00.139Z,99499.25
2023-01-13T02:00:30.065Z,99497.91
2023-01-13T02:02:57.275Z,99498.59
2023-01-13T02:05:26.751Z,99501.72
2023-01-13T02:07:56.847Z,99502.38
2023-01-13T02:10:27.686Z,99496.25
2023-01-13T02:12:58.940Z,99502.59
2023-01-13T02:15:37.219Z,99502.38
2023-01-13T02:18:15.884Z,99496.00
2023-01-13T02:21:18.983Z,99512.69
2023-01-13T02:24:28.773Z,99504.16
2023-01-13T02:27:04.490Z,99508.13
2023-01-13T02:30:13.269Z,99515.22
2023-01-13T02:32:48.151Z,99511.00
2023-01-13T02:35:20.584Z,99511.00
2023-01-13T02:37:48.624Z,99511.28
2023-01-13T02:40:38.239Z,99513.53
2023-01-13T02:43:33.571Z,99512.44
2023-01-13T02:46:10.464Z,99506.97
2023-01-13T02:48:39.810Z,99509.22
2023-01-13T02:51:13.306Z,99512.47
2023-01-13T02:54:12.007Z,99506.50
2023-01-13T02:56:44.615Z,99506.59
2023-01-13T02:59:12.808Z,99508.09
2023-01-13T03:01:40.220Z,99507.22
2023-01-13T03:04:14.435Z,99500.31
2023-01-13T03:06:57.722Z,99503.25
2023-01-13T03:09:50.011Z,99503.47
2023-01-13T03:12:31.894Z,99507.66
2023-01-13T03:15:24.560Z,99510.44
2023-01-13T03:18:13.146Z,99512.91
2023-01-13T03:20:59.430Z,99508.03
2023-01-13T03:23:44.065Z,99530.28
2023-01-13T03:26:17.601Z,99526.69
2023-01-13T03:28:58.515Z,99529.78
2023-01-13T03:31:34.489Z,99523.13
2023-01-13T03:34:14.036Z,99533.34
2023-01-13T03:36:41.688Z,99529.78
2023-01-13T03:39:15.375Z,99537.78
2023-01-13T03:41:49.091Z,99529.44
2023-01-13T03:44:31.947Z,99544.00
2023-01-13T03:47:15.610Z,99538.06
2023-01-13T03:49:46.151Z,99542.34
2023-01-13T03:52:19.447Z,99533.22
2023-01-13T03:54:55.393Z,99541.38
2023-01-13T03:57:27.636Z,99530.72
2023-01-13T03:59:59.085Z,99537.94
2023-01-13T04:02:46.897Z,99534.78
2023-01-13T04:05:15.140Z,99543.50
2023-01-13T04:08:07.418Z,99539.19
2023-01-13T04:10:44.658Z,99525.81
2023-01-13T04:13:14.485Z,99527.97
2023-01-13T04:15:44.246Z,99532.25
2023-01-13T04:18:27.611Z,99529.84
2023-01-13T04:20:57.074Z,99523.78
2023-01-13T04:23:24.781Z,99517.25
2023-01-13T04:25:52.130Z,99521.59
2023-01-13T04:28:19.653Z,99516.75
2023-01-13T04:30:46.924Z,99522.84
2023-01-13T04:33:15.272Z,99520.66
2023-01-13T04:35:42.074Z,99514.31
2023-01-13T04:38:11.800Z,99514.16
2023-01-13T04:40:39.451Z,99522.16
2023-01-13T04:43:06.058Z,99529.25
2023-01-13T04:45:32.747Z,99539.47
2023-01-13T04:47:59.811Z,99539.53
2023-01-13T04:50:26.647Z,99528.78
2023-01-13T04:52:54.571Z,99534.84
2023-01-13T04:55:23.301Z,99525.16
2023-01-13T04:57:49.955Z,99526.22
2023-01-13T05:00:18.692Z,99522.53
2023-01-13T05:02:45.333Z,99533.19
2023-01-13T05:05:11.938Z,99529.38
2023-01-13T05:07:38.490Z,99534.25
2023-01-13T05:10:05.548Z,99540.78
2023-01-13T05:12:51.332Z,99537.31
2023-01-13T05:15:36.910Z,99540.19
2023-01-13T05:18:04.135Z,99526.00
2023-01-13T05:20:30.742Z,99523.78
2023-01-13T05:23:15.664Z,99526.56
2023-01-13T05:25:44.505Z,99515.91
2023-01-13T05:28:11.650Z,99517.31
2023-01-13T05:30:43.645Z,99522.00
2023-01-13T05:33:11.476Z,99527.16
2023-01-13T05:35:39.851Z,99522.81
2023-01-13T05:38:06.532Z,99511.84
2023-01-13T05:40:51.990Z,99519.81
2023-01-13T05:43:21.338Z,99522.06
2023-01-13T05:45:59.122Z,99516.00
2023-01-13T05:48:34.463Z,99517.16
2023-01-13T05:51:02.525Z,99516.91
2023-01-13T05:53:29.573Z,99508.97
2023-01-13T05:55:56.362Z,99509.66
2023-01-13T05:58:25.618Z,99508.63
2023-01-13T06:00:53.129Z,99511.53
2023-01-13T06:03:20.456Z,99509.69
2023-01-13T06:05:48.067Z,99517.13
2023-01-13T06:08:14.747Z,99521.78
2023-01-13T06:10:41.570Z,99518.91
2023-01-13T06:13:08.221Z,99498.16
2023-01-13T06:15:34.812Z,99506.97
2023-01-13T06:18:04.950Z,99500.63
2023-01-13T06:20:32.247Z,99511.44
2023-01-13T06:22:59.894Z,99512.19
2023-01-13T06:25:44.845Z,99507.88
2023-01-13T06:28:11.493Z,99511.88
2023-01-13T06:31:00.637Z,99511.94
2023-01-13T06:33:35.655Z,99515.72
2023-01-13T06:36:07.291Z,99513.03
2023-01-13T06:38:37.376Z,99507.97
2023-01-13T06:41:06.372Z,99503.47
2023-01-13T06:43:35.727Z,99505.66
2023-01-13T06:46:03.242Z,99502.16
2023-01-13T06:48:34.140Z,99508.19
2023-01-13T06:51:02.195Z,99513.63
2023-01-13T06:53:28.823Z,99505.28
2023-01-13T06:55:55.455Z,99502.25
2023-01-13T06:58:22.034Z,99501.09
2023-01-13T07:00:51.273Z,99492.38
2023-01-13T07:03:19.121Z,99500.16
2023-01-13T07:05:56.314Z,99506.13
2023-01-13T07:08:23.728Z,99505.81
2023-01-13T07:10:51.310Z,99501.22
2023-01-13T07:13:36.794Z,99500.25
2023-01-13T07:16:06.111Z,99503.69
2023-01-13T07:18:34.430Z,99505.47
2023-01-13T07:21:06.466Z,99505.28
2023-01-13T07:24:02.513Z,99506.84
2023-01-13T07:26:29.287Z,99505.00
2023-01-13T07:28:55.863Z,99502.38
2023-01-13T07:31:33.145Z,99511.59
2023-01-13T07:34:00.122Z,99510.06
2023-01-13T07:36:29.553Z,99508.38
2023-01-13T07:38:56.734Z,99511.44
2023-01-13T07:41:42.317Z,99505.28
2023-01-13T07:44:10.759Z,99499.94
2023-01-13T07:46:38.311Z,99504.44
2023-01-13T07:49:08.776Z,99495.66
2023-01-13T07:51:49.318Z,99491.06
2023-01-13T07:54:16.004Z,99486.56
2023-01-13T07:56:42.826Z,99485.38
2023-01-13T07:59:09.590Z,99493.59
2023-01-13T08:01:36.279Z,99491.28
2023-01-13T08:04:09.793Z,99487.47
2023-01-13T08:06:36.735Z,99494.25
2023-01-13T08:09:03.479Z,99489.03
2023-01-13T08:11:30.311Z,99493.16
2023-01-13T08:14:00.191Z,99492.13
2023-01-13T08:16:26.906Z,99494.84
2023-01-13T08:18:53.541Z,99479.50
2023-01-13T08:21:23.213Z,99477.56
2023-01-13T08:23:50.129Z,99492.97
2023-01-13T08:26:18.434Z,99495.31
2023-01-13T08:28:45.719Z,99498.34
2023-01-13T08:31:16.107Z,99496.78
2023-01-13T08:33:43.170Z,99498.41
2023-01-13T08:36:12.405Z,99505.81
2023-01-13T08:38:39.665Z,99501.19
2023-01-13T08:41:14.965Z,99506.03
2023-01-13T08:43:41.540Z,99506.19
2023-01-13T08:46:16.149Z,99502.25
2023-01-13T08:48:45.760Z,99514.06
2023-01-13T08:51:12.612Z,99502.03
2023-01-13T08:53:44.800Z,99508.44
2023-01-13T08:56:12.511Z,99506.50
2023-01-13T08:58:39.343Z,99499.44
2023-01-13T09:01:07.149Z,99501.31
2023-01-13T09:03:34.150Z,99512.41
2023-01-13T09:06:04.419Z,99485.38
2023-01-13T09:08:31.207Z,99503.22
2023-01-13T09:11:00.045Z,99501.47
2023-01-13T09:13:26.639Z,99499.28
2023-01-13T09:15:57.091Z,99497.44
2023-01-13T09:18:24.090Z,99489.28
2023-01-13T09:20:53.583Z,99493.47
2023-01-13T09:23:20.251Z,99499.22
2023-01-13T09:25:47.115Z,99497.84
2023-01-13T09:28:13.714Z,99489.75
2023-01-13T09:30:40.425Z,99495.44
2023-01-13T09:33:25.855Z,99506.72
2023-01-13T09:35:52.802Z,99498.47
2023-01-13T09:38:19.783Z,99487.56
2023-01-13T09:40:49.086Z,99507.44
2023-01-13T09:43:44.185Z,99498.88
2023-01-13T09:46:39.824Z,99496.78
2023-01-13T09:49:16.021Z,99503.91
2023-01-13T09:51:48.850Z,99507.22
2023-01-13T09:54:38.302Z,99504.22
2023-01-13T09:57:12.138Z,99504.81
2023-01-13T09:59:39.239Z,99498.25
2023-01-13T10:02:24.476Z,99498.03
2023-01-13T10:05:32.837Z,99484.53
2023-01-13T10:08:05.247Z,99489.59
2023-01-13T10:10:43.615Z,99492.75
2023-01-13T10:13:21.195Z,99494.75
2023-01-13T10:16:28.308Z,99485.94
2023-01-13T10:19:13.957Z,99479.75
2023-01-13T10:22:01.613Z,99492.47
2023-01-13T10:24:28.632Z,99491.34
2023-01-13T10:27:06.196Z,99490.31
2023-01-13T10:29:38.100Z,99479.63
2023-01-13T10:32:05.130Z,99487.06
2023-01-13T10:34:33.034Z,99487.50
2023-01-13T10:37:06.744Z,99485.09
2023-01-13T10:39:45.918Z,99481.56
2023-01-13T10:42:17.995Z,99483.66
2023-01-13T10:44:56.218Z,99491.69
2023-01-13T10:47:27.362Z,99481.91
2023-01-13T10:50:06.359Z,99480.34
2023-01-13T10:52:41.346Z,99488.75
2023-01-13T10:55:25.527Z,99494.97
2023-01-13T10:57:52.278Z,99505.19
2023-01-13T11:00:28.367Z,99510.28
2023-01-13T11:03:13.804Z,99512.69
2023-01-13T11:05:41.109Z,99509.66
2023-01-13T11:08:18.140Z,99530.38
2023-01-13T11:10:48.410Z,99523.94
2023-01-13T11:13:17.309Z,99523.41
2023-01-13T11:16:08.843Z,99524.50
2023-01-13T11:18:51.806Z,99517.53
2023-01-13T11:21:30.237Z,99511.91
2023-01-13T11:24:23.854Z,99514.03
2023-01-13T11:27:02.003Z,99523.22
2023-01-13T11:30:02.972Z,99523.41
2023-01-13T11:32:35.613Z,99525.69
2023-01-13T11:35:09.779Z,99520.03
2023-01-13T11:37:42.067Z,99516.50
2023-01-13T11:40:32.764Z,99518.59
2023-01-13T11:43:29.776Z,99514.59
2023-01-13T11:46:01.852Z,99507.25
2023-01-13T11:48:32.545Z,99511.53
2023-01-13T11:51:07.925Z,99505.56
2023-01-13T11:53:43.799Z,99512.28
2023-01-13T11:56:41.383Z,99508.81
2023-01-13T11:59:17.016Z,99503.50
2023-01-13T12:01:55.690Z,99499.81
2023-01-13T12:04:31.959Z,99510.28
2023-01-13T12:07:22.104Z,99506.13
2023-01-13T12:10:05.094Z,99503.38
2023-01-13T12:12:49.292Z,99509.28
2023-01-13T12:15:22.615Z,99496.47
2023-01-13T12:18:08.006Z,99516.94
2023-01-13T12:21:13.221Z,99500.28
2023-01-13T12:23:55.944Z,99493.72
2023-01-13T12:26:23.800Z,99507.75
2023-01-13T12:29:00.740Z,99504.69
2023-01-13T12:31:28.470Z,99498.16
2023-01-13T12:34:28.014Z,99501.06
2023-01-13T12:37:16.644Z,99503.69
2023-01-13T12:40:13.345Z,99502.16
2023-01-13T12:43:14.114Z,99522.53
2023-01-13T12:45:40.963Z,99502.91
2023-01-13T12:48:49.386Z,99523.41
2023-01-13T12:51:33.286Z,99511.06
2023-01-13T12:54:02.013Z,99504.91
2023-01-13T12:56:39.583Z,99515.53
2023-01-13T12:59:38.610Z,99516.81
2023-01-13T13:02:11.350Z,99523.59
2023-01-13T13:04:47.977Z,99530.19
2023-01-13T13:07:26.876Z,99544.22
2023-01-13T13:09:59.636Z,99553.59
2023-01-13T13:13:10.809Z,99548.63
2023-01-13T13:15:37.657Z,99534.94
2023-01-13T13:18:34.272Z,99535.09
2023-01-13T13:21:09.866Z,99537.09
2023-01-13T13:23:50.108Z,99531.75
2023-01-13T13:26:20.168Z,99532.31
2023-01-13T13:29:08.547Z,99540.00
2023-01-13T13:31:38.476Z,99533.88
2023-01-13T13:34:16.221Z,99542.84
2023-01-13T13:36:51.146Z,99535.78
2023-01-13T13:39:40.373Z,99539.06
2023-01-13T13:42:57.024Z,99538.34
2023-01-13T13:45:44.358Z,99551.13
2023-01-13T13:48:30.639Z,99551.28
2023-01-13T13:51:04.623Z,99550.38
2023-01-13T13:53:39.333Z,99550.41
2023-01-13T13:56:19.330Z,99557.97
2023-01-13T13:58:47.502Z,99564.03
2023-01-13T14:01:38.967Z,99570.06
2023-01-13T14:04:25.993Z,99578.38
2023-01-13T14:06:54.394Z,99556.84
2023-01-13T14:09:22.485Z,99576.13
2023-01-13T14:12:02.004Z,99580.41
2023-01-13T14:14:28.957Z,99581.28
2023-01-13T14:16:58.688Z,99586.84
2023-01-13T14:19:30.456Z,99594.03
2023-01-13T14:22:01.233Z,99585.47
2023-01-13T14:24:29.846Z,99576.75
2023-01-13T14:27:18.457Z,99576.16
2023-01-13T14:29:45.804Z,99582.50
2023-01-13T14:32:20.019Z,99585.56
2023-01-13T14:34:47.122Z,99590.50
2023-01-13T14:37:31.399Z,99591.25
2023-01-13T14:39:58.467Z,99588.47
2023-01-13T14:42:27.655Z,99584.38
2023-01-13T14:44:56.321Z,99580.03
2023-01-13T14:47:27.997Z,99586.69
2023-01-13T14:50:06.176Z,99584.44
2023-01-13T14:52:50.855Z,99573.22
2023-01-13T14:55:23.076Z,99566.97
2023-01-13T14:57:52.958Z,99576.28
2023-01-13T15:00:23.543Z,99582.94
2023-01-13T15:02:53.388Z,99595.19
2023-01-13T15:05:20.053Z,99588.00
2023-01-13T15:07:56.327Z,99598.56
2023-01-13T15:10:33.240Z,99609.72
2023-01-13T15:13:05.556Z,99620.72
2023-01-13T15:15:33.859Z,99605.25
2023-01-13T15:18:12.690Z,99635.66
2023-01-13T15:20:39.964Z,99641.19
2023-01-13T15:23:07.077Z,99644.00
2023-01-13T15:25:38.386Z,99653.03
2023-01-13T15:28:06.659Z,99652.75
2023-01-13T15:30:33.961Z,99653.59
2023-01-13T15:33:00.616Z,99645.09
2023-01-13T15:35:29.031Z,99649.50
2023-01-13T15:37:57.068Z,99649.97
2023-01-13T15:40:26.638Z,99642.78
2023-01-13T15:43:13.593Z,99658.63
2023-01-13T15:45:59.189Z,99666.47
2023-01-13T15:48:28.075Z,99667.63
2023-01-13T15:50:54.710Z,99671.97
2023-01-13T15:53:21.388Z,99664.00
2023-01-13T15:55:51.825Z,99675.25
2023-01-13T15:58:20.991Z,99670.66
2023-01-13T16:00:47.702Z,99676.84
2023-01-13T16:03:15.769Z,99670.59
2023-01-13T16:05:43.644Z,99683.53
2023-01-13T16:08:22.801Z,99676.56
2023-01-13T16:10:51.017Z,99675.19
2023-01-13T16:13:18.399Z,99686.94
2023-01-13T16:15:49.948Z,99685.22
2023-01-13T16:18:24.301Z,99684.75
2023-01-13T16:20:57.605Z,99697.06
2023-01-13T16:23:24.331Z,99682.47
2023-01-13T16:25:51.366Z,99683.84
2023-01-13T16:28:23.968Z,99696.28
2023-01-13T16:30:53.878Z,99709.19
2023-01-13T16:33:20.540Z,99708.16
2023-01-13T16:36:09.658Z,99708.16
2023-01-13T16:38:36.996Z,99720.78
2023-01-13T16:41:03.814Z,99722.53
2023-01-13T16:43:30.672Z,99727.25
2023-01-13T16:45:59.518Z,99737.34
2023-01-13T16:48:26.328Z,99745.25
2023-01-13T16:50:56.218Z,99746.94
2023-01-13T16:53:28.049Z,99754.34
2023-01-13T16:55:54.886Z,99746.94
2023-01-13T16:58:24.316Z,99760.38
2023-01-13T17:00:52.926Z,99758.59
2023-01-13T17:03:22.299Z,99762.19
2023-01-13T17:05:48.979Z,99758.81
2023-01-13T17:08:20.058Z,99754.22
2023-01-13T17:10:47.141Z,99753.34
2023-01-13T17:13:17.064Z,99773.06
2023-01-13T17:15:45.244Z,99765.34
2023-01-13T17:18:13.363Z,99767.72
2023-01-13T17:20:42.864Z,99771.19
2023-01-13T17:23:09.535Z,99761.00
2023-01-13T17:25:36.367Z,99767.19
2023-01-13T17:28:05.362Z,99764.47
2023-01-13T17:30:32.349Z,99761.97
2023-01-13T17:32:59.351Z,99758.41
2023-01-13T17:35:26.040Z,99773.22
2023-01-13T17:37:53.687Z,99755.88
2023-01-13T17:40:20.583Z,99776.34
2023-01-13T17:42:47.256Z,99766.25
2023-01-13T17:45:14.022Z,99775.19
2023-01-13T17:47:40.553Z,99774.19
2023-01-13T17:50:07.605Z,99772.84
2023-01-13T17:52:34.589Z,99770.81
2023-01-13T17:55:01.170Z,99775.44
2023-01-13T17:57:27.984Z,99778.56
2023-01-13T17:59:54.746Z,99788.16
2023-01-13T18:02:21.459Z,99793.22
2023-01-13T18:04:48.211Z,99802.75
2023-01-13T18:07:14.801Z,99816.50
2023-01-13T18:09:41.359Z,99812.22
2023-01-13T18:12:08.046Z,99820.63
2023-01-13T18:14:35.014Z,99825.94
2023-01-13T18:17:04.824Z,99829.63
2023-01-13T18:19:50.025Z,99831.69
2023-01-13T18:22:35.108Z,99840.50
2023-01-13T18:25:21.851Z,99855.81
2023-01-13T18:27:48.637Z,99845.88
2023-01-13T18:30:15.560Z,99849.50
2023-01-13T18:32:42.310Z,99845.66
2023-01-13T18:35:10.838Z,99851.34
2023-01-13T18:37:40.321Z,99855.88
2023-01-13T18:40:09.461Z,99861.28
2023-01-13T18:42:52.133Z,99855.25
2023-01-13T18:45:25.039Z,99863.06
2023-01-13T18:47:52.981Z,99870.69
2023-01-13T18:50:23.194Z,99864.56
2023-01-13T18:52:50.153Z,99872.38
2023-01-13T18:55:17.373Z,99900.47
2023-01-13T18:57:44.031Z,99902.81
2023-01-13T19:00:14.957Z,99907.97
2023-01-13T19:02:44.338Z,99913.41
2023-01-13T19:05:11.168Z,99908.56
2023-01-13T19:07:38.043Z,99908.81
2023-01-13T19:10:06.582Z,99905.66
2023-01-13T19:12:33.773Z,99919.78
2023-01-13T19:15:01.579Z,99918.78
2023-01-13T19:17:33.088Z,99922.25
2023-01-13T19:20:00.047Z,99924.72
2023-01-13T19:22:32.719Z,99912.94
2023-01-13T19:25:01.052Z,99930.34
2023-01-13T19:27:28.671Z,99936.28
2023-01-13T19:30:00.664Z,99935.00
2023-01-13T19:32:28.692Z,99928.38
2023-01-13T19:34:59.117Z,99944.03
2023-01-13T19:37:30.118Z,99949.84
2023-01-13T19:39:58.454Z,99947.34
2023-01-13T19:42:43.729Z,99940.59
2023-01-13T19:45:37.073Z,99948.16
2023-01-13T19:48:05.544Z,99960.53
2023-01-13T19:50:36.370Z,99968.66
2023-01-13T19:53:03.415Z,99963.44
2023-01-13T19:55:31.852Z,99976.66
2023-01-13T19:57:58.999Z,99972.88
2023-01-13T20:00:25.650Z,99980.50
2023-01-13T20:02:53.295Z,99988.00
2023-01-13T20:05:22.848Z,99991.88
2023-01-13T20:07:50.885Z,99997.84
2023-01-13T20:10:20.315Z,100001.94
2023-01-13T20:12:47.054Z,100006.59
2023-01-13T20:15:14.324Z,100007.53
2023-01-13T20:17:41.589Z,100011.63
2023-01-13T20:20:09.972Z,100019.22
2023-01-13T20:22:40.327Z,100026.41
2023-01-13T20:25:08.902Z,100014.50
2023-01-13T20:27:36.555Z,100022.47
2023-01-13T20:30:04.876Z,100032.91
2023-01-13T20:32:31.437Z,100045.22
2023-01-13T20:34:58.033Z,100052.19
2023-01-13T20:37:24.900Z,100049.94
2023-01-13T20:39:51.550Z,100055.00
2023-01-13T20:42:30.366Z,100049.50
2023-01-13T20:44:58.745Z,100049.50
2023-01-13T20:47:26.432Z,100053.75
2023-01-13T20:49:53.468Z,100056.31
2023-01-13T20:52:20.350Z,100059.19
2023-01-13T20:54:47.116Z,100052.38
2023-01-13T20:57:13.897Z,100055.94
2023-01-13T20:59:40.660Z,100058.81
2023-01-13T21:02:13.082Z,100058.78
2023-01-13T21:04:40.316Z,100066.88
2023-01-13T21:07:07.081Z,100064.13
2023-01-13T21:09:33.742Z,100065.91
2023-01-13T21:12:19.008Z,100069.28
2023-01-13T21:15:04.268Z,100079.28
2023-01-13T21:17:49.583Z,100074.66
2023-01-13T21:20:16.566Z,100083.09
2023-01-13T21:22:48.028Z,100085.53
2023-01-13T21:25:16.473Z,100081.47
2023-01-13T21:27:46.000Z,100080.66
2023-01-13T21:30:14.875Z,100081.75
2023-01-13T21:32:42.678Z,100096.22
2023-01-13T21:35:10.227Z,100097.31
2023-01-13T21:37:38.150Z,100105.31
2023-01-13T21:40:07.233Z,100112.47
2023-01-13T21:42:52.803Z,100118.41
2023-01-13T21:45:38.118Z,100108.09
2023-01-13T21:48:05.130Z,100121.16
2023-01-13T21:50:35.828Z,100129.63
2023-01-13T21:53:02.424Z,100140.06
2023-01-13T21:55:29.369Z,100142.44
2023-01-13T21:57:57.580Z,100145.88
2023-01-13T22:00:27.066Z,100169.91
2023-01-13T22:02:54.098Z,100169.91
2023-01-13T22:05:22.509Z,100182.66
2023-01-13T22:07:50.002Z,100189.72
2023-01-13T22:10:25.763Z,100190.97
2023-01-13T22:12:57.376Z,100202.25
2023-01-13T22:15:28.405Z,100204.94
2023-01-13T22:17:55.755Z,100206.22
2023-01-13T22:20:22.838Z,100214.16
2023-01-13T22:22:49.818Z,100218.72
2023-01-13T22:25:17.212Z,100218.78
2023-01-13T22:27:44.903Z,100218.59
2023-01-13T22:30:13.799Z,100233.94
2023-01-13T22:32:40.458Z,100230.19
2023-01-13T22:35:08.440Z,100241.84
2023-01-13T22:37:35.471Z,100245.97
2023-01-13T22:40:02.704Z,100245.22
2023-01-13T22:42:29.293Z,100244.16
2023-01-13T22:44:56.052Z,100255.38
2023-01-13T22:47:22.799Z,100261.06
2023-01-13T22:49:49.545Z,100265.53
2023-01-13T22:52:17.283Z,100273.81
2023-01-13T22:54:44.270Z,100274.44
2023-01-13T22:57:11.019Z,100281.22
2023-01-13T22:59:37.619Z,100276.03
2023-01-13T23:02:04.196Z,100285.19
2023-01-13T23:04:30.926Z,100287.47
2023-01-13T23:06:59.112Z,100289.94
2023-01-13T23:09:25.818Z,100290.56
2023-01-13T23:11:53.581Z,100280.97
2023-01-13T23:14:21.196Z,100294.03
2023-01-13T23:16:47.836Z,100291.28
2023-01-13T23:19:14.472Z,100294.19
2023-01-13T23:21:41.233Z,100299.13
2023-01-13T23:24:09.305Z,100306.47
2023-01-13T23:26:36.581Z,100316.91
2023-01-13T23:29:07.064Z,100322.91
2023-01-13T23:31:36.019Z,100325.25
2023-01-13T23:34:02.690Z,100327.00
2023-01-13T23:36:29.798Z,100334.81
2023-01-13T23:38:58.949Z,100339.84
2023-01-13T23:41:26.960Z,100330.97
2023-01-13T23:44:02.601Z,100333.25
2023-01-13T23:46:31.115Z,100334.69
2023-01-13T23:48:57.749Z,100331.25
2023-01-13T23:51:26.297Z,100336.59
2023-01-13T23:53:53.876Z,100331.13
2023-01-13T23:56:22.990Z,100345.16
2023-01-13T23:58:50.189Z,100348.59
